sensor_id;sensor_type;location;lat;lon;timestamp;P1;durP1;ratioP1;P2;durP2;ratioP2
47329;SDS011;33060;50.178;7.570;2023-11-21T00:02:23;1.58;;;0.40;;
47329;SDS011;33060;50.178;7.570;2023-11-21T00:04:52;1.80;;;0.38;;
47329;SDS011;33060;50.178;7.570;2023-11-21T00:07:21;1.70;;;0.25;;
47329;SDS011;33060;50.178;7.570;2023-11-21T00:09:50;2.10;;;0.50;;
47329;SDS011;33060;50.178;7.570;2023-11-21T00:12:18;1.75;;;0.35;;
47329;SDS011;33060;50.178;7.570;2023-11-21T00:14:48;1.40;;;0.30;;
47329;SDS011;33060;50.178;7.570;2023-11-21T00:17:16;2.00;;;0.38;;
47329;SDS011;33060;50.178;7.570;2023-11-21T00:19:48;1.17;;;0.17;;
47329;SDS011;33060;50.178;7.570;2023-11-21T00:22:16;1.30;;;0.22;;
47329;SDS011;33060;50.178;7.570;2023-11-21T00:24:50;1.75;;;0.17;;
47329;SDS011;33060;50.178;7.570;2023-11-21T00:27:18;2.55;;;0.30;;
47329;SDS011;33060;50.178;7.570;2023-11-21T00:29:47;1.25;;;0.10;;
47329;SDS011;33060;50.178;7.570;2023-11-21T00:32:16;0.52;;;0.00;;
47329;SDS011;33060;50.178;7.570;2023-11-21T00:34:45;0.63;;;0.00;;
47329;SDS011;33060;50.178;7.570;2023-11-21T00:37:22;0.47;;;0.00;;
47329;SDS011;33060;50.178;7.570;2023-11-21T00:39:53;0.28;;;0.00;;
47329;SDS011;33060;50.178;7.570;2023-11-21T00:42:22;0.40;;;0.00;;
47329;SDS011;33060;50.178;7.570;2023-11-21T00:44:50;0.13;;;0.00;;
47329;SDS011;33060;50.178;7.570;2023-11-21T00:47:22;0.75;;;0.00;;
47329;SDS011;33060;50.178;7.570;2023-11-21T00:49:50;0.20;;;0.00;;
47329;SDS011;33060;50.178;7.570;2023-11-21T00:52:27;3.97;;;0.13;;
47329;SDS011;33060;50.178;7.570;2023-11-21T00:54:54;1.10;;;0.05;;
47329;SDS011;33060;50.178;7.570;2023-11-21T00:57:22;0.82;;;0.08;;
47329;SDS011;33060;50.178;7.570;2023-11-21T00:59:52;0.30;;;0.10;;
47329;SDS011;33060;50.178;7.570;2023-11-21T01:02:26;0.30;;;0.00;;
47329;SDS011;33060;50.178;7.570;2023-11-21T01:04:54;1.23;;;0.00;;
47329;SDS011;33060;50.178;7.570;2023-11-21T01:07:21;0.50;;;0.00;;
47329;SDS011;33060;50.178;7.570;2023-11-21T01:09:51;0.30;;;0.00;;
47329;SDS011;33060;50.178;7.570;2023-11-21T01:12:22;0.68;;;0.00;;
47329;SDS011;33060;50.178;7.570;2023-11-21T01:14:54;0.50;;;0.00;;
47329;SDS011;33060;50.178;7.570;2023-11-21T01:17:23;0.57;;;0.00;;
47329;SDS011;33060;50.178;7.570;2023-11-21T01:19:53;0.90;;;0.03;;
47329;SDS011;33060;50.178;7.570;2023-11-21T01:22:30;1.23;;;0.10;;
47329;SDS011;33060;50.178;7.570;2023-11-21T01:25:01;1.48;;;0.15;;
47329;SDS011;33060;50.178;7.570;2023-11-21T01:27:33;2.05;;;0.40;;
47329;SDS011;33060;50.178;7.570;2023-11-21T01:30:05;2.45;;;0.45;;
47329;SDS011;33060;50.178;7.570;2023-11-21T01:32:35;2.28;;;0.50;;
47329;SDS011;33060;50.178;7.570;2023-11-21T01:35:08;2.45;;;0.70;;
47329;SDS011;33060;50.178;7.570;2023-11-21T01:37:38;2.20;;;0.52;;
47329;SDS011;33060;50.178;7.570;2023-11-21T01:40:07;3.10;;;1.13;;
47329;SDS011;33060;50.178;7.570;2023-11-21T01:42:38;4.40;;;1.67;;
47329;SDS011;33060;50.178;7.570;2023-11-21T01:45:06;4.70;;;2.00;;
47329;SDS011;33060;50.178;7.570;2023-11-21T01:47:34;5.50;;;2.38;;
47329;SDS011;33060;50.178;7.570;2023-11-21T01:50:06;4.22;;;1.80;;
47329;SDS011;33060;50.178;7.570;2023-11-21T01:52:36;5.70;;;2.10;;
47329;SDS011;33060;50.178;7.570;2023-11-21T01:55:07;6.20;;;2.33;;
47329;SDS011;33060;50.178;7.570;2023-11-21T01:57:46;6.35;;;2.45;;
47329;SDS011;33060;50.178;7.570;2023-11-21T02:00:23;6.03;;;2.10;;
47329;SDS011;33060;50.178;7.570;2023-11-21T02:02:54;5.80;;;2.60;;
47329;SDS011;33060;50.178;7.570;2023-11-21T02:05:25;6.13;;;3.05;;
47329;SDS011;33060;50.178;7.570;2023-11-21T02:07:53;8.15;;;3.50;;
47329;SDS011;33060;50.178;7.570;2023-11-21T02:10:22;8.90;;;3.55;;
47329;SDS011;33060;50.178;7.570;2023-11-21T02:12:51;6.20;;;2.63;;
47329;SDS011;33060;50.178;7.570;2023-11-21T02:15:20;5.00;;;2.47;;
47329;SDS011;33060;50.178;7.570;2023-11-21T02:17:49;7.82;;;3.33;;
47329;SDS011;33060;50.178;7.570;2023-11-21T02:20:20;6.20;;;3.15;;
47329;SDS011;33060;50.178;7.570;2023-11-21T02:22:54;6.70;;;2.65;;
47329;SDS011;33060;50.178;7.570;2023-11-21T02:25:32;6.35;;;3.17;;
47329;SDS011;33060;50.178;7.570;2023-11-21T02:28:05;6.78;;;2.90;;
47329;SDS011;33060;50.178;7.570;2023-11-21T02:30:36;6.18;;;3.10;;
47329;SDS011;33060;50.178;7.570;2023-11-21T02:33:08;7.15;;;2.50;;
47329;SDS011;33060;50.178;7.570;2023-11-21T02:35:37;7.22;;;3.17;;
47329;SDS011;33060;50.178;7.570;2023-11-21T02:38:06;5.82;;;2.50;;
47329;SDS011;33060;50.178;7.570;2023-11-21T02:40:34;4.22;;;2.00;;
47329;SDS011;33060;50.178;7.570;2023-11-21T02:43:02;4.47;;;1.60;;
47329;SDS011;33060;50.178;7.570;2023-11-21T02:45:35;5.47;;;1.70;;
47329;SDS011;33060;50.178;7.570;2023-11-21T02:48:03;3.88;;;1.67;;
47329;SDS011;33060;50.178;7.570;2023-11-21T02:50:31;4.40;;;1.52;;
47329;SDS011;33060;50.178;7.570;2023-11-21T02:53:01;4.40;;;1.75;;
47329;SDS011;33060;50.178;7.570;2023-11-21T02:55:34;5.18;;;2.33;;
47329;SDS011;33060;50.178;7.570;2023-11-21T02:58:03;5.50;;;2.15;;
47329;SDS011;33060;50.178;7.570;2023-11-21T03:00:30;3.42;;;1.45;;
47329;SDS011;33060;50.178;7.570;2023-11-21T03:02:57;6.53;;;2.33;;
47329;SDS011;33060;50.178;7.570;2023-11-21T03:05:25;6.22;;;2.53;;
47329;SDS011;33060;50.178;7.570;2023-11-21T03:10:18;4.93;;;1.67;;
47329;SDS011;33060;50.178;7.570;2023-11-21T03:12:45;6.45;;;1.50;;
47329;SDS011;33060;50.178;7.570;2023-11-21T03:15:12;4.22;;;1.90;;
47329;SDS011;33060;50.178;7.570;2023-11-21T03:20:06;3.53;;;1.00;;
47329;SDS011;33060;50.178;7.570;2023-11-21T03:22:37;3.33;;;1.30;;
47329;SDS011;33060;50.178;7.570;2023-11-21T03:25:05;4.75;;;1.85;;
47329;SDS011;33060;50.178;7.570;2023-11-21T03:27:32;3.05;;;0.93;;
47329;SDS011;33060;50.178;7.570;2023-11-21T03:29:59;3.78;;;1.58;;
47329;SDS011;33060;50.178;7.570;2023-11-21T03:34:56;4.38;;;1.30;;
47329;SDS011;33060;50.178;7.570;2023-11-21T03:37:25;3.17;;;1.50;;
47329;SDS011;33060;50.178;7.570;2023-11-21T03:39:55;3.10;;;0.98;;
47329;SDS011;33060;50.178;7.570;2023-11-21T03:42:23;3.70;;;1.15;;
47329;SDS011;33060;50.178;7.570;2023-11-21T03:44:52;2.75;;;0.75;;
47329;SDS011;33060;50.178;7.570;2023-11-21T03:47:19;2.92;;;0.70;;
47329;SDS011;33060;50.178;7.570;2023-11-21T03:52:15;5.03;;;1.25;;
47329;SDS011;33060;50.178;7.570;2023-11-21T03:54:42;4.10;;;1.60;;
47329;SDS011;33060;50.178;7.570;2023-11-21T03:57:10;3.45;;;1.52;;
47329;SDS011;33060;50.178;7.570;2023-11-21T03:59:42;3.72;;;1.73;;
47329;SDS011;33060;50.178;7.570;2023-11-21T04:02:09;4.30;;;1.73;;
47329;SDS011;33060;50.178;7.570;2023-11-21T04:04:36;4.72;;;1.92;;
47329;SDS011;33060;50.178;7.570;2023-11-21T04:07:03;3.53;;;1.13;;
47329;SDS011;33060;50.178;7.570;2023-11-21T04:09:31;4.97;;;2.13;;
47329;SDS011;33060;50.178;7.570;2023-11-21T04:14:24;6.00;;;2.83;;
47329;SDS011;33060;50.178;7.570;2023-11-21T04:16:51;4.88;;;2.22;;
47329;SDS011;33060;50.178;7.570;2023-11-21T04:21:44;4.65;;;2.20;;
47329;SDS011;33060;50.178;7.570;2023-11-21T04:26:38;4.47;;;2.10;;
47329;SDS011;33060;50.178;7.570;2023-11-21T04:29:04;4.18;;;1.90;;
47329;SDS011;33060;50.178;7.570;2023-11-21T04:31:31;4.47;;;1.77;;
47329;SDS011;33060;50.178;7.570;2023-11-21T04:33:58;5.03;;;2.45;;
47329;SDS011;33060;50.178;7.570;2023-11-21T04:36:25;4.18;;;2.03;;
47329;SDS011;33060;50.178;7.570;2023-11-21T04:41:19;4.68;;;1.65;;
47329;SDS011;33060;50.178;7.570;2023-11-21T04:43:46;4.32;;;1.30;;
47329;SDS011;33060;50.178;7.570;2023-11-21T04:46:12;4.45;;;1.67;;
47329;SDS011;33060;50.178;7.570;2023-11-21T04:51:06;4.07;;;1.67;;
47329;SDS011;33060;50.178;7.570;2023-11-21T04:56:00;5.25;;;2.13;;
47329;SDS011;33060;50.178;7.570;2023-11-21T05:00:53;5.47;;;2.05;;
47329;SDS011;33060;50.178;7.570;2023-11-21T05:03:20;5.20;;;2.70;;
47329;SDS011;33060;50.178;7.570;2023-11-21T05:05:47;5.03;;;2.25;;
47329;SDS011;33060;50.178;7.570;2023-11-21T05:10:40;4.97;;;2.13;;
47329;SDS011;33060;50.178;7.570;2023-11-21T05:13:07;7.60;;;2.85;;
47329;SDS011;33060;50.178;7.570;2023-11-21T05:15:37;5.32;;;2.70;;
47329;SDS011;33060;50.178;7.570;2023-11-21T05:18:05;5.35;;;1.90;;
47329;SDS011;33060;50.178;7.570;2023-11-21T05:20:33;5.97;;;2.20;;
47329;SDS011;33060;50.178;7.570;2023-11-21T05:22:59;6.53;;;2.63;;
47329;SDS011;33060;50.178;7.570;2023-11-21T05:27:53;5.45;;;2.88;;
47329;SDS011;33060;50.178;7.570;2023-11-21T05:30:21;5.57;;;2.33;;
47329;SDS011;33060;50.178;7.570;2023-11-21T05:32:48;5.47;;;2.35;;
47329;SDS011;33060;50.178;7.570;2023-11-21T05:35:16;4.82;;;1.90;;
47329;SDS011;33060;50.178;7.570;2023-11-21T05:37:47;7.43;;;3.17;;
47329;SDS011;33060;50.178;7.570;2023-11-21T05:40:14;3.47;;;1.48;;
47329;SDS011;33060;50.178;7.570;2023-11-21T05:42:41;6.10;;;2.42;;
47329;SDS011;33060;50.178;7.570;2023-11-21T05:45:08;4.55;;;1.70;;
47329;SDS011;33060;50.178;7.570;2023-11-21T05:47:42;6.72;;;2.40;;
47329;SDS011;33060;50.178;7.570;2023-11-21T05:50:13;6.82;;;2.90;;
47329;SDS011;33060;50.178;7.570;2023-11-21T05:52:43;7.40;;;3.13;;
47329;SDS011;33060;50.178;7.570;2023-11-21T05:55:11;6.25;;;3.35;;
47329;SDS011;33060;50.178;7.570;2023-11-21T05:57:38;5.28;;;2.22;;
47329;SDS011;33060;50.178;7.570;2023-11-21T06:00:07;5.78;;;3.00;;
47329;SDS011;33060;50.178;7.570;2023-11-21T06:02:42;5.72;;;2.38;;
47329;SDS011;33060;50.178;7.570;2023-11-21T06:07:37;6.95;;;3.15;;
47329;SDS011;33060;50.178;7.570;2023-11-21T06:10:04;5.57;;;2.20;;
47329;SDS011;33060;50.178;7.570;2023-11-21T06:12:35;6.60;;;2.55;;
47329;SDS011;33060;50.178;7.570;2023-11-21T06:17:31;7.32;;;3.88;;
47329;SDS011;33060;50.178;7.570;2023-11-21T06:22:25;9.57;;;4.05;;
47329;SDS011;33060;50.178;7.570;2023-11-21T06:24:51;5.22;;;2.40;;
47329;SDS011;33060;50.178;7.570;2023-11-21T06:27:18;7.75;;;3.72;;
47329;SDS011;33060;50.178;7.570;2023-11-21T06:29:45;7.47;;;3.80;;
47329;SDS011;33060;50.178;7.570;2023-11-21T06:32:11;9.57;;;4.53;;
47329;SDS011;33060;50.178;7.570;2023-11-21T06:34:39;6.80;;;2.80;;
47329;SDS011;33060;50.178;7.570;2023-11-21T06:37:05;6.75;;;2.88;;
47329;SDS011;33060;50.178;7.570;2023-11-21T06:39:32;6.72;;;3.50;;
47329;SDS011;33060;50.178;7.570;2023-11-21T06:41:59;7.55;;;3.47;;
47329;SDS011;33060;50.178;7.570;2023-11-21T06:44:26;8.50;;;3.85;;
47329;SDS011;33060;50.178;7.570;2023-11-21T06:46:53;8.05;;;3.53;;
47329;SDS011;33060;50.178;7.570;2023-11-21T06:49:20;6.22;;;2.95;;
47329;SDS011;33060;50.178;7.570;2023-11-21T06:51:47;12.15;;;3.78;;
47329;SDS011;33060;50.178;7.570;2023-11-21T06:54:14;9.02;;;5.00;;
47329;SDS011;33060;50.178;7.570;2023-11-21T06:56:40;7.60;;;3.63;;
47329;SDS011;33060;50.178;7.570;2023-11-21T06:59:07;10.45;;;5.13;;
47329;SDS011;33060;50.178;7.570;2023-11-21T07:01:35;8.68;;;4.20;;
47329;SDS011;33060;50.178;7.570;2023-11-21T07:04:06;10.43;;;5.30;;
47329;SDS011;33060;50.178;7.570;2023-11-21T07:06:33;10.27;;;5.45;;
47329;SDS011;33060;50.178;7.570;2023-11-21T07:09:00;10.45;;;3.80;;
47329;SDS011;33060;50.178;7.570;2023-11-21T07:11:27;10.23;;;4.43;;
47329;SDS011;33060;50.178;7.570;2023-11-21T07:13:54;9.27;;;4.55;;
47329;SDS011;33060;50.178;7.570;2023-11-21T07:18:48;9.77;;;5.20;;
47329;SDS011;33060;50.178;7.570;2023-11-21T07:21:15;10.02;;;4.70;;
47329;SDS011;33060;50.178;7.570;2023-11-21T07:23:43;10.32;;;4.47;;
47329;SDS011;33060;50.178;7.570;2023-11-21T07:26:09;9.25;;;4.70;;
47329;SDS011;33060;50.178;7.570;2023-11-21T07:28:37;8.93;;;4.80;;
47329;SDS011;33060;50.178;7.570;2023-11-21T07:31:04;12.00;;;6.00;;
47329;SDS011;33060;50.178;7.570;2023-11-21T07:33:31;9.40;;;4.90;;
47329;SDS011;33060;50.178;7.570;2023-11-21T07:35:57;10.63;;;5.28;;
47329;SDS011;33060;50.178;7.570;2023-11-21T07:38:24;9.68;;;5.20;;
47329;SDS011;33060;50.178;7.570;2023-11-21T07:40:51;14.38;;;7.45;;
47329;SDS011;33060;50.178;7.570;2023-11-21T07:45:46;11.23;;;5.20;;
47329;SDS011;33060;50.178;7.570;2023-11-21T07:50:39;11.75;;;5.75;;
47329;SDS011;33060;50.178;7.570;2023-11-21T07:53:06;12.20;;;5.72;;
47329;SDS011;33060;50.178;7.570;2023-11-21T07:55:33;15.15;;;7.28;;
47329;SDS011;33060;50.178;7.570;2023-11-21T07:57:59;11.85;;;5.68;;
47329;SDS011;33060;50.178;7.570;2023-11-21T08:00:26;10.63;;;5.55;;
47329;SDS011;33060;50.178;7.570;2023-11-21T08:02:56;11.50;;;6.68;;
47329;SDS011;33060;50.178;7.570;2023-11-21T08:08:02;12.05;;;5.85;;
47329;SDS011;33060;50.178;7.570;2023-11-21T08:10:29;15.27;;;6.97;;
47329;SDS011;33060;50.178;7.570;2023-11-21T08:12:56;12.88;;;7.78;;
47329;SDS011;33060;50.178;7.570;2023-11-21T08:15:23;13.77;;;7.85;;
47329;SDS011;33060;50.178;7.570;2023-11-21T08:17:50;11.63;;;6.22;;
47329;SDS011;33060;50.178;7.570;2023-11-21T08:22:45;11.40;;;5.93;;
47329;SDS011;33060;50.178;7.570;2023-11-21T08:25:14;13.75;;;6.43;;
47329;SDS011;33060;50.178;7.570;2023-11-21T08:27:41;12.52;;;7.00;;
47329;SDS011;33060;50.178;7.570;2023-11-21T08:30:07;12.75;;;5.80;;
47329;SDS011;33060;50.178;7.570;2023-11-21T08:32:34;13.45;;;6.97;;
47329;SDS011;33060;50.178;7.570;2023-11-21T08:35:01;12.45;;;6.05;;
47329;SDS011;33060;50.178;7.570;2023-11-21T08:37:29;14.27;;;6.57;;
47329;SDS011;33060;50.178;7.570;2023-11-21T08:39:58;11.60;;;5.63;;
47329;SDS011;33060;50.178;7.570;2023-11-21T08:42:26;14.52;;;7.20;;
47329;SDS011;33060;50.178;7.570;2023-11-21T08:44:56;13.40;;;6.53;;
47329;SDS011;33060;50.178;7.570;2023-11-21T08:47:24;11.77;;;5.80;;
47329;SDS011;33060;50.178;7.570;2023-11-21T08:52:21;15.88;;;8.52;;
47329;SDS011;33060;50.178;7.570;2023-11-21T08:54:50;18.95;;;9.27;;
47329;SDS011;33060;50.178;7.570;2023-11-21T08:57:22;15.35;;;7.50;;
47329;SDS011;33060;50.178;7.570;2023-11-21T08:59:49;11.98;;;6.53;;
47329;SDS011;33060;50.178;7.570;2023-11-21T09:02:21;13.65;;;7.00;;
47329;SDS011;33060;50.178;7.570;2023-11-21T09:04:49;17.20;;;7.60;;
47329;SDS011;33060;50.178;7.570;2023-11-21T09:07:19;18.17;;;8.20;;
47329;SDS011;33060;50.178;7.570;2023-11-21T09:09:47;13.10;;;7.32;;
47329;SDS011;33060;50.178;7.570;2023-11-21T09:12:14;14.98;;;7.40;;
47329;SDS011;33060;50.178;7.570;2023-11-21T09:14:42;17.70;;;8.32;;
47329;SDS011;33060;50.178;7.570;2023-11-21T09:17:10;14.35;;;7.60;;
47329;SDS011;33060;50.178;7.570;2023-11-21T09:19:40;16.02;;;8.70;;
47329;SDS011;33060;50.178;7.570;2023-11-21T09:24:34;15.27;;;7.43;;
47329;SDS011;33060;50.178;7.570;2023-11-21T09:27:03;13.32;;;6.68;;
47329;SDS011;33060;50.178;7.570;2023-11-21T09:29:31;14.93;;;7.40;;
47329;SDS011;33060;50.178;7.570;2023-11-21T09:31:58;14.00;;;6.28;;
47329;SDS011;33060;50.178;7.570;2023-11-21T09:34:28;14.90;;;7.90;;
47329;SDS011;33060;50.178;7.570;2023-11-21T09:36:54;17.17;;;6.95;;
47329;SDS011;33060;50.178;7.570;2023-11-21T09:47:14;16.27;;;7.60;;
47329;SDS011;33060;50.178;7.570;2023-11-21T09:49:47;16.48;;;7.20;;
47329;SDS011;33060;50.178;7.570;2023-11-21T09:52:18;15.90;;;7.30;;
47329;SDS011;33060;50.178;7.570;2023-11-21T09:54:52;14.65;;;7.82;;
47329;SDS011;33060;50.178;7.570;2023-11-21T09:57:23;20.00;;;9.55;;
47329;SDS011;33060;50.178;7.570;2023-11-21T09:59:53;15.68;;;8.57;;
47329;SDS011;33060;50.178;7.570;2023-11-21T10:02:26;16.80;;;9.60;;
47329;SDS011;33060;50.178;7.570;2023-11-21T10:04:56;18.63;;;10.10;;
47329;SDS011;33060;50.178;7.570;2023-11-21T10:07:24;18.40;;;8.88;;
47329;SDS011;33060;50.178;7.570;2023-11-21T10:09:51;13.75;;;7.65;;
47329;SDS011;33060;50.178;7.570;2023-11-21T10:12:19;17.85;;;8.73;;
47329;SDS011;33060;50.178;7.570;2023-11-21T10:14:48;11.93;;;6.53;;
47329;SDS011;33060;50.178;7.570;2023-11-21T10:17:15;19.27;;;9.30;;
47329;SDS011;33060;50.178;7.570;2023-11-21T10:19:47;18.77;;;8.90;;
47329;SDS011;33060;50.178;7.570;2023-11-21T10:22:15;18.40;;;8.43;;
47329;SDS011;33060;50.178;7.570;2023-11-21T10:24:42;18.20;;;8.43;;
47329;SDS011;33060;50.178;7.570;2023-11-21T10:27:19;13.80;;;7.10;;
47329;SDS011;33060;50.178;7.570;2023-11-21T10:29:45;17.55;;;8.15;;
47329;SDS011;33060;50.178;7.570;2023-11-21T10:32:12;16.05;;;8.05;;
47329;SDS011;33060;50.178;7.570;2023-11-21T10:34:39;15.85;;;7.35;;
47329;SDS011;33060;50.178;7.570;2023-11-21T10:37:11;16.27;;;9.10;;
47329;SDS011;33060;50.178;7.570;2023-11-21T10:39:39;13.55;;;6.35;;
47329;SDS011;33060;50.178;7.570;2023-11-21T10:42:07;18.40;;;10.20;;
47329;SDS011;33060;50.178;7.570;2023-11-21T10:44:35;15.65;;;8.02;;
47329;SDS011;33060;50.178;7.570;2023-11-21T10:47:02;13.43;;;7.10;;
47329;SDS011;33060;50.178;7.570;2023-11-21T10:49:29;16.70;;;7.72;;
47329;SDS011;33060;50.178;7.570;2023-11-21T10:51:56;14.15;;;8.05;;
47329;SDS011;33060;50.178;7.570;2023-11-21T10:54:23;17.75;;;7.68;;
47329;SDS011;33060;50.178;7.570;2023-11-21T10:56:57;17.05;;;8.95;;
47329;SDS011;33060;50.178;7.570;2023-11-21T10:59:30;16.95;;;9.07;;
47329;SDS011;33060;50.178;7.570;2023-11-21T11:01:58;25.42;;;11.85;;
47329;SDS011;33060;50.178;7.570;2023-11-21T11:04:29;22.25;;;11.52;;
47329;SDS011;33060;50.178;7.570;2023-11-21T11:06:57;23.52;;;10.52;;
47329;SDS011;33060;50.178;7.570;2023-11-21T11:09:31;23.63;;;10.63;;
47329;SDS011;33060;50.178;7.570;2023-11-21T11:12:02;19.17;;;9.13;;
47329;SDS011;33060;50.178;7.570;2023-11-21T11:14:31;23.67;;;10.60;;
47329;SDS011;33060;50.178;7.570;2023-11-21T11:16:59;28.85;;;14.27;;
47329;SDS011;33060;50.178;7.570;2023-11-21T11:19:28;12.80;;;6.07;;
47329;SDS011;33060;50.178;7.570;2023-11-21T11:24:42;14.25;;;7.38;;
47329;SDS011;33060;50.178;7.570;2023-11-21T11:27:20;19.60;;;10.80;;
47329;SDS011;33060;50.178;7.570;2023-11-21T11:35:34;18.60;;;9.82;;
47329;SDS011;33060;50.178;7.570;2023-11-21T11:38:11;18.05;;;8.43;;
47329;SDS011;33060;50.178;7.570;2023-11-21T11:43:11;21.25;;;8.57;;
47329;SDS011;33060;50.178;7.570;2023-11-21T11:45:38;27.60;;;12.65;;
47329;SDS011;33060;50.178;7.570;2023-11-21T11:48:10;18.20;;;9.40;;
47329;SDS011;33060;50.178;7.570;2023-11-21T11:53:34;27.63;;;13.70;;
47329;SDS011;33060;50.178;7.570;2023-11-21T11:56:22;17.50;;;9.57;;
47329;SDS011;33060;50.178;7.570;2023-11-21T12:01:18;16.90;;;9.75;;
47329;SDS011;33060;50.178;7.570;2023-11-21T12:04:21;15.55;;;7.78;;
47329;SDS011;33060;50.178;7.570;2023-11-21T12:06:43;17.88;;;8.07;;
47329;SDS011;33060;50.178;7.570;2023-11-21T12:09:12;14.25;;;6.97;;
47329;SDS011;33060;50.178;7.570;2023-11-21T12:11:50;16.08;;;6.95;;
47329;SDS011;33060;50.178;7.570;2023-11-21T12:14:17;14.63;;;7.22;;
47329;SDS011;33060;50.178;7.570;2023-11-21T12:16:44;12.90;;;6.80;;
47329;SDS011;33060;50.178;7.570;2023-11-21T12:19:11;16.25;;;7.88;;
47329;SDS011;33060;50.178;7.570;2023-11-21T12:21:39;12.38;;;5.90;;
47329;SDS011;33060;50.178;7.570;2023-11-21T12:24:10;12.90;;;6.68;;
47329;SDS011;33060;50.178;7.570;2023-11-21T12:26:40;17.30;;;8.02;;
47329;SDS011;33060;50.178;7.570;2023-11-21T12:29:07;16.48;;;6.90;;
47329;SDS011;33060;50.178;7.570;2023-11-21T12:31:34;15.77;;;7.55;;
47329;SDS011;33060;50.178;7.570;2023-11-21T12:34:01;12.90;;;6.85;;
47329;SDS011;33060;50.178;7.570;2023-11-21T12:36:29;13.60;;;6.10;;
47329;SDS011;33060;50.178;7.570;2023-11-21T12:38:56;17.08;;;8.35;;
47329;SDS011;33060;50.178;7.570;2023-11-21T12:41:23;15.18;;;6.90;;
47329;SDS011;33060;50.178;7.570;2023-11-21T12:43:50;18.25;;;7.38;;
47329;SDS011;33060;50.178;7.570;2023-11-21T12:46:17;16.92;;;8.98;;
47329;SDS011;33060;50.178;7.570;2023-11-21T12:48:44;15.68;;;8.10;;
47329;SDS011;33060;50.178;7.570;2023-11-21T12:51:14;17.00;;;8.13;;
47329;SDS011;33060;50.178;7.570;2023-11-21T12:53:42;17.42;;;10.00;;
47329;SDS011;33060;50.178;7.570;2023-11-21T12:56:12;17.13;;;7.70;;
47329;SDS011;33060;50.178;7.570;2023-11-21T12:58:40;14.57;;;6.28;;
47329;SDS011;33060;50.178;7.570;2023-11-21T13:01:13;14.02;;;6.53;;
47329;SDS011;33060;50.178;7.570;2023-11-21T13:03:56;15.27;;;7.13;;
47329;SDS011;33060;50.178;7.570;2023-11-21T13:06:28;16.50;;;7.80;;
47329;SDS011;33060;50.178;7.570;2023-11-21T13:09:00;15.73;;;7.07;;
47329;SDS011;33060;50.178;7.570;2023-11-21T13:11:26;19.52;;;8.85;;
47329;SDS011;33060;50.178;7.570;2023-11-21T13:13:54;14.98;;;7.20;;
47329;SDS011;33060;50.178;7.570;2023-11-21T13:16:22;15.70;;;7.60;;
47329;SDS011;33060;50.178;7.570;2023-11-21T13:18:50;16.60;;;8.43;;
47329;SDS011;33060;50.178;7.570;2023-11-21T13:21:16;17.10;;;7.70;;
47329;SDS011;33060;50.178;7.570;2023-11-21T13:23:43;16.38;;;6.88;;
47329;SDS011;33060;50.178;7.570;2023-11-21T13:26:12;14.55;;;7.18;;
47329;SDS011;33060;50.178;7.570;2023-11-21T13:28:41;17.85;;;7.93;;
47329;SDS011;33060;50.178;7.570;2023-11-21T13:31:13;14.75;;;6.93;;
47329;SDS011;33060;50.178;7.570;2023-11-21T13:36:31;18.33;;;8.05;;
47329;SDS011;33060;50.178;7.570;2023-11-21T13:39:02;17.02;;;7.43;;
47329;SDS011;33060;50.178;7.570;2023-11-21T13:41:34;14.18;;;7.32;;
47329;SDS011;33060;50.178;7.570;2023-11-21T13:46:53;14.73;;;6.10;;
47329;SDS011;33060;50.178;7.570;2023-11-21T13:49:22;13.63;;;5.70;;
47329;SDS011;33060;50.178;7.570;2023-11-21T13:51:49;16.83;;;7.65;;
47329;SDS011;33060;50.178;7.570;2023-11-21T13:54:18;40.97;;;15.38;;
47329;SDS011;33060;50.178;7.570;2023-11-21T13:56:46;13.82;;;6.70;;
47329;SDS011;33060;50.178;7.570;2023-11-21T13:59:13;14.40;;;7.45;;
47329;SDS011;33060;50.178;7.570;2023-11-21T14:01:48;16.83;;;7.68;;
47329;SDS011;33060;50.178;7.570;2023-11-21T14:04:27;13.00;;;6.25;;
47329;SDS011;33060;50.178;7.570;2023-11-21T14:06:57;14.40;;;6.85;;
47329;SDS011;33060;50.178;7.570;2023-11-21T14:09:27;12.82;;;5.95;;
47329;SDS011;33060;50.178;7.570;2023-11-21T14:12:02;19.40;;;8.07;;
47329;SDS011;33060;50.178;7.570;2023-11-21T14:14:33;20.52;;;9.60;;
47329;SDS011;33060;50.178;7.570;2023-11-21T14:17:00;14.32;;;5.88;;
47329;SDS011;33060;50.178;7.570;2023-11-21T14:19:32;17.30;;;8.23;;
47329;SDS011;33060;50.178;7.570;2023-11-21T14:22:00;15.93;;;7.60;;
47329;SDS011;33060;50.178;7.570;2023-11-21T14:24:27;18.35;;;7.90;;
47329;SDS011;33060;50.178;7.570;2023-11-21T14:26:56;15.63;;;7.13;;
47329;SDS011;33060;50.178;7.570;2023-11-21T14:29:22;31.50;;;15.55;;
47329;SDS011;33060;50.178;7.570;2023-11-21T14:31:50;20.77;;;8.88;;
47329;SDS011;33060;50.178;7.570;2023-11-21T14:34:20;15.10;;;7.38;;
47329;SDS011;33060;50.178;7.570;2023-11-21T14:36:49;14.15;;;6.97;;
47329;SDS011;33060;50.178;7.570;2023-11-21T14:39:17;15.18;;;7.30;;
47329;SDS011;33060;50.178;7.570;2023-11-21T14:41:51;16.13;;;7.22;;
47329;SDS011;33060;50.178;7.570;2023-11-21T14:44:25;14.98;;;6.68;;
47329;SDS011;33060;50.178;7.570;2023-11-21T14:46:55;18.88;;;8.93;;
47329;SDS011;33060;50.178;7.570;2023-11-21T14:49:24;17.17;;;8.60;;
47329;SDS011;33060;50.178;7.570;2023-11-21T14:51:55;16.95;;;7.60;;
47329;SDS011;33060;50.178;7.570;2023-11-21T14:54:34;16.15;;;8.05;;
47329;SDS011;33060;50.178;7.570;2023-11-21T14:57:11;19.27;;;8.52;;
47329;SDS011;33060;50.178;7.570;2023-11-21T14:59:43;14.98;;;7.00;;
47329;SDS011;33060;50.178;7.570;2023-11-21T15:02:18;17.92;;;8.13;;
47329;SDS011;33060;50.178;7.570;2023-11-21T15:04:49;17.08;;;6.93;;
47329;SDS011;33060;50.178;7.570;2023-11-21T15:07:19;16.77;;;8.30;;
47329;SDS011;33060;50.178;7.570;2023-11-21T15:09:46;16.27;;;7.90;;
47329;SDS011;33060;50.178;7.570;2023-11-21T15:12:12;15.88;;;8.30;;
47329;SDS011;33060;50.178;7.570;2023-11-21T15:14:49;19.58;;;9.55;;
47329;SDS011;33060;50.178;7.570;2023-11-21T15:17:21;20.05;;;8.40;;
47329;SDS011;33060;50.178;7.570;2023-11-21T15:19:57;14.85;;;6.82;;
47329;SDS011;33060;50.178;7.570;2023-11-21T15:24:52;20.73;;;9.98;;
47329;SDS011;33060;50.178;7.570;2023-11-21T15:27:20;21.38;;;11.48;;
47329;SDS011;33060;50.178;7.570;2023-11-21T15:29:47;20.42;;;9.60;;
47329;SDS011;33060;50.178;7.570;2023-11-21T15:32:16;19.05;;;9.07;;
47329;SDS011;33060;50.178;7.570;2023-11-21T15:37:10;19.42;;;8.07;;
47329;SDS011;33060;50.178;7.570;2023-11-21T15:39:38;16.45;;;8.38;;
47329;SDS011;33060;50.178;7.570;2023-11-21T15:42:06;18.17;;;8.80;;
47329;SDS011;33060;50.178;7.570;2023-11-21T15:44:36;16.10;;;8.13;;
47329;SDS011;33060;50.178;7.570;2023-11-21T15:47:04;17.88;;;7.35;;
47329;SDS011;33060;50.178;7.570;2023-11-21T15:49:31;23.17;;;11.65;;
47329;SDS011;33060;50.178;7.570;2023-11-21T15:52:02;30.20;;;14.60;;
47329;SDS011;33060;50.178;7.570;2023-11-21T15:54:33;19.13;;;9.57;;
47329;SDS011;33060;50.178;7.570;2023-11-21T15:57:01;30.92;;;15.50;;
47329;SDS011;33060;50.178;7.570;2023-11-21T15:59:31;36.95;;;18.45;;
47329;SDS011;33060;50.178;7.570;2023-11-21T16:01:59;27.35;;;15.57;;
47329;SDS011;33060;50.178;7.570;2023-11-21T16:04:27;54.85;;;33.58;;
47329;SDS011;33060;50.178;7.570;2023-11-21T16:06:55;22.83;;;10.85;;
47329;SDS011;33060;50.178;7.570;2023-11-21T16:09:22;21.55;;;9.65;;
47329;SDS011;33060;50.178;7.570;2023-11-21T16:11:50;21.67;;;10.25;;
47329;SDS011;33060;50.178;7.570;2023-11-21T16:14:19;18.00;;;9.48;;
47329;SDS011;33060;50.178;7.570;2023-11-21T16:16:51;19.77;;;10.55;;
47329;SDS011;33060;50.178;7.570;2023-11-21T16:19:19;18.33;;;9.77;;
47329;SDS011;33060;50.178;7.570;2023-11-21T16:21:46;19.35;;;9.55;;